sensor_id;sensor_type;location;lat;lon;timestamp;P1;durP1;ratioP1;P2;durP2;ratioP2
15595;SDS011;7898;48.658;9.068;2024-02-14T00:00:07;9.27;;;4.87;;
15595;SDS011;7898;48.658;9.068;2024-02-14T00:02:38;10.93;;;5.37;;
15595;SDS011;7898;48.658;9.068;2024-02-14T00:05:05;7.70;;;5.97;;
15595;SDS011;7898;48.658;9.068;2024-02-14T00:07:33;9.50;;;6.63;;
15595;SDS011;7898;48.658;9.068;2024-02-14T00:09:59;10.87;;;7.13;;
15595;SDS011;7898;48.658;9.068;2024-02-14T00:12:26;11.03;;;7.30;;
15595;SDS011;7898;48.658;9.068;2024-02-14T00:14:53;12.30;;;7.77;;
15595;SDS011;7898;48.658;9.068;2024-02-14T00:17:21;10.63;;;6.73;;
15595;SDS011;7898;48.658;9.068;2024-02-14T00:19:48;11.30;;;6.40;;
15595;SDS011;7898;48.658;9.068;2024-02-14T00:22:15;10.87;;;6.40;;
15595;SDS011;7898;48.658;9.068;2024-02-14T00:24:42;12.17;;;5.83;;
15595;SDS011;7898;48.658;9.068;2024-02-14T00:27:09;10.57;;;6.90;;
15595;SDS011;7898;48.658;9.068;2024-02-14T00:29:37;12.13;;;7.47;;
15595;SDS011;7898;48.658;9.068;2024-02-14T00:32:04;12.47;;;7.37;;
15595;SDS011;7898;48.658;9.068;2024-02-14T00:34:32;14.67;;;7.73;;
15595;SDS011;7898;48.658;9.068;2024-02-14T00:36:59;9.93;;;7.60;;
15595;SDS011;7898;48.658;9.068;2024-02-14T00:39:26;12.10;;;7.20;;
15595;SDS011;7898;48.658;9.068;2024-02-14T00:41:53;12.20;;;7.00;;
15595;SDS011;7898;48.658;9.068;2024-02-14T00:44:21;12.73;;;7.50;;
15595;SDS011;7898;48.658;9.068;2024-02-14T00:46:48;13.13;;;7.63;;
15595;SDS011;7898;48.658;9.068;2024-02-14T00:49:15;16.13;;;7.63;;
15595;SDS011;7898;48.658;9.068;2024-02-14T00:51:43;12.27;;;7.43;;
15595;SDS011;7898;48.658;9.068;2024-02-14T00:54:10;12.67;;;6.90;;
15595;SDS011;7898;48.658;9.068;2024-02-14T00:56:38;10.57;;;7.50;;
15595;SDS011;7898;48.658;9.068;2024-02-14T00:59:05;9.93;;;7.10;;
15595;SDS011;7898;48.658;9.068;2024-02-14T01:01:32;9.63;;;6.97;;
15595;SDS011;7898;48.658;9.068;2024-02-14T01:03:59;10.77;;;7.73;;
15595;SDS011;7898;48.658;9.068;2024-02-14T01:06:26;11.00;;;7.40;;
15595;SDS011;7898;48.658;9.068;2024-02-14T01:08:54;15.33;;;8.10;;
15595;SDS011;7898;48.658;9.068;2024-02-14T01:11:21;11.73;;;7.50;;
15595;SDS011;7898;48.658;9.068;2024-02-14T01:13:48;13.63;;;8.33;;
15595;SDS011;7898;48.658;9.068;2024-02-14T01:16:15;13.50;;;7.73;;
15595;SDS011;7898;48.658;9.068;2024-02-14T01:18:42;12.13;;;7.87;;
15595;SDS011;7898;48.658;9.068;2024-02-14T01:21:09;14.43;;;7.73;;
15595;SDS011;7898;48.658;9.068;2024-02-14T01:23:36;10.27;;;8.07;;
15595;SDS011;7898;48.658;9.068;2024-02-14T01:26:04;11.23;;;7.80;;
15595;SDS011;7898;48.658;9.068;2024-02-14T01:28:31;15.57;;;8.30;;
15595;SDS011;7898;48.658;9.068;2024-02-14T01:30:58;11.77;;;7.97;;
15595;SDS011;7898;48.658;9.068;2024-02-14T01:33:25;11.17;;;7.90;;
15595;SDS011;7898;48.658;9.068;2024-02-14T01:35:52;11.33;;;7.47;;
15595;SDS011;7898;48.658;9.068;2024-02-14T01:38:20;11.10;;;7.50;;
15595;SDS011;7898;48.658;9.068;2024-02-14T01:40:47;13.37;;;8.00;;
15595;SDS011;7898;48.658;9.068;2024-02-14T01:43:15;13.77;;;7.30;;
15595;SDS011;7898;48.658;9.068;2024-02-14T01:45:42;13.40;;;6.90;;
15595;SDS011;7898;48.658;9.068;2024-02-14T01:48:09;13.20;;;7.33;;
15595;SDS011;7898;48.658;9.068;2024-02-14T01:50:36;11.57;;;6.70;;
15595;SDS011;7898;48.658;9.068;2024-02-14T01:53:05;7.60;;;5.97;;
15595;SDS011;7898;48.658;9.068;2024-02-14T01:55:33;9.13;;;6.33;;
15595;SDS011;7898;48.658;9.068;2024-02-14T01:58:00;11.13;;;6.47;;
15595;SDS011;7898;48.658;9.068;2024-02-14T02:00:29;8.13;;;5.97;;
15595;SDS011;7898;48.658;9.068;2024-02-14T02:02:57;11.20;;;6.60;;
15595;SDS011;7898;48.658;9.068;2024-02-14T02:05:24;6.93;;;5.33;;
15595;SDS011;7898;48.658;9.068;2024-02-14T02:07:51;10.13;;;6.43;;
15595;SDS011;7898;48.658;9.068;2024-02-14T02:10:19;9.13;;;6.13;;
15595;SDS011;7898;48.658;9.068;2024-02-14T02:12:47;9.63;;;5.87;;
15595;SDS011;7898;48.658;9.068;2024-02-14T02:15:16;9.03;;;5.73;;
15595;SDS011;7898;48.658;9.068;2024-02-14T02:17:44;8.80;;;5.83;;
15595;SDS011;7898;48.658;9.068;2024-02-14T02:20:17;7.10;;;5.07;;
15595;SDS011;7898;48.658;9.068;2024-02-14T02:22:46;12.13;;;5.50;;
15595;SDS011;7898;48.658;9.068;2024-02-14T02:25:14;9.13;;;5.80;;
15595;SDS011;7898;48.658;9.068;2024-02-14T02:27:41;11.53;;;6.70;;
15595;SDS011;7898;48.658;9.068;2024-02-14T02:30:08;7.63;;;5.70;;
15595;SDS011;7898;48.658;9.068;2024-02-14T02:32:35;8.40;;;6.40;;
15595;SDS011;7898;48.658;9.068;2024-02-14T02:35:03;7.23;;;6.10;;
15595;SDS011;7898;48.658;9.068;2024-02-14T02:37:30;11.47;;;6.43;;
15595;SDS011;7898;48.658;9.068;2024-02-14T02:39:59;14.47;;;6.77;;
15595;SDS011;7898;48.658;9.068;2024-02-14T02:42:26;8.50;;;6.47;;
15595;SDS011;7898;48.658;9.068;2024-02-14T02:44:54;7.60;;;5.90;;
15595;SDS011;7898;48.658;9.068;2024-02-14T02:47:21;10.17;;;6.20;;
15595;SDS011;7898;48.658;9.068;2024-02-14T02:49:47;10.73;;;6.03;;
15595;SDS011;7898;48.658;9.068;2024-02-14T02:52:14;8.57;;;5.67;;
15595;SDS011;7898;48.658;9.068;2024-02-14T02:54:41;8.20;;;6.27;;
15595;SDS011;7898;48.658;9.068;2024-02-14T02:57:10;9.67;;;7.17;;
15595;SDS011;7898;48.658;9.068;2024-02-14T02:59:37;8.57;;;5.90;;
15595;SDS011;7898;48.658;9.068;2024-02-14T03:02:08;9.47;;;6.20;;
15595;SDS011;7898;48.658;9.068;2024-02-14T03:04:37;11.73;;;6.17;;
15595;SDS011;7898;48.658;9.068;2024-02-14T03:07:04;9.37;;;6.40;;
15595;SDS011;7898;48.658;9.068;2024-02-14T03:09:33;8.63;;;6.33;;
15595;SDS011;7898;48.658;9.068;2024-02-14T03:12:00;8.60;;;5.30;;
15595;SDS011;7898;48.658;9.068;2024-02-14T03:14:29;9.37;;;5.97;;
15595;SDS011;7898;48.658;9.068;2024-02-14T03:16:58;8.30;;;5.70;;
15595;SDS011;7898;48.658;9.068;2024-02-14T03:19:25;11.40;;;6.20;;
15595;SDS011;7898;48.658;9.068;2024-02-14T03:21:53;6.70;;;5.97;;
15595;SDS011;7898;48.658;9.068;2024-02-14T03:24:19;9.37;;;5.83;;
15595;SDS011;7898;48.658;9.068;2024-02-14T03:26:46;8.23;;;6.43;;
15595;SDS011;7898;48.658;9.068;2024-02-14T03:29:16;7.90;;;6.13;;
15595;SDS011;7898;48.658;9.068;2024-02-14T03:31:45;10.33;;;6.20;;
15595;SDS011;7898;48.658;9.068;2024-02-14T03:34:12;6.97;;;6.10;;
15595;SDS011;7898;48.658;9.068;2024-02-14T03:36:39;7.53;;;5.13;;
15595;SDS011;7898;48.658;9.068;2024-02-14T03:39:06;8.83;;;5.53;;
15595;SDS011;7898;48.658;9.068;2024-02-14T03:41:33;7.73;;;5.73;;
15595;SDS011;7898;48.658;9.068;2024-02-14T03:44:00;7.40;;;5.63;;
15595;SDS011;7898;48.658;9.068;2024-02-14T03:46:28;8.10;;;6.20;;
15595;SDS011;7898;48.658;9.068;2024-02-14T03:48:56;9.90;;;5.47;;
15595;SDS011;7898;48.658;9.068;2024-02-14T03:51:23;7.73;;;5.53;;
15595;SDS011;7898;48.658;9.068;2024-02-14T03:53:50;6.80;;;5.43;;
15595;SDS011;7898;48.658;9.068;2024-02-14T03:56:17;9.23;;;5.80;;
15595;SDS011;7898;48.658;9.068;2024-02-14T03:58:44;11.27;;;6.60;;
15595;SDS011;7898;48.658;9.068;2024-02-14T04:01:12;10.73;;;6.47;;
15595;SDS011;7898;48.658;9.068;2024-02-14T04:03:39;9.37;;;6.67;;
15595;SDS011;7898;48.658;9.068;2024-02-14T04:06:07;10.50;;;7.63;;
15595;SDS011;7898;48.658;9.068;2024-02-14T04:08:35;14.00;;;8.40;;
15595;SDS011;7898;48.658;9.068;2024-02-14T04:11:02;9.37;;;6.37;;
15595;SDS011;7898;48.658;9.068;2024-02-14T04:13:29;13.17;;;6.90;;
15595;SDS011;7898;48.658;9.068;2024-02-14T04:15:55;10.97;;;6.33;;
15595;SDS011;7898;48.658;9.068;2024-02-14T04:18:22;7.00;;;5.47;;
15595;SDS011;7898;48.658;9.068;2024-02-14T04:20:49;10.80;;;6.07;;
15595;SDS011;7898;48.658;9.068;2024-02-14T04:23:17;8.23;;;6.47;;
15595;SDS011;7898;48.658;9.068;2024-02-14T04:25:44;6.50;;;4.50;;
15595;SDS011;7898;48.658;9.068;2024-02-14T04:28:11;7.93;;;6.03;;
15595;SDS011;7898;48.658;9.068;2024-02-14T04:30:38;7.67;;;5.67;;
15595;SDS011;7898;48.658;9.068;2024-02-14T04:33:06;8.57;;;6.23;;
15595;SDS011;7898;48.658;9.068;2024-02-14T04:35:34;8.87;;;6.23;;
15595;SDS011;7898;48.658;9.068;2024-02-14T04:38:01;12.00;;;6.87;;
15595;SDS011;7898;48.658;9.068;2024-02-14T04:40:29;8.83;;;5.93;;
15595;SDS011;7898;48.658;9.068;2024-02-14T04:42:56;8.73;;;5.70;;
15595;SDS011;7898;48.658;9.068;2024-02-14T04:45:23;9.57;;;6.40;;
15595;SDS011;7898;48.658;9.068;2024-02-14T04:47:49;9.30;;;6.73;;
15595;SDS011;7898;48.658;9.068;2024-02-14T04:50:16;8.67;;;6.43;;
15595;SDS011;7898;48.658;9.068;2024-02-14T04:52:44;9.13;;;6.17;;
15595;SDS011;7898;48.658;9.068;2024-02-14T04:55:11;9.97;;;6.17;;
15595;SDS011;7898;48.658;9.068;2024-02-14T04:57:39;7.40;;;5.50;;
15595;SDS011;7898;48.658;9.068;2024-02-14T05:00:06;9.43;;;4.90;;
15595;SDS011;7898;48.658;9.068;2024-02-14T05:02:35;7.57;;;4.73;;
15595;SDS011;7898;48.658;9.068;2024-02-14T05:05:02;7.03;;;4.97;;
15595;SDS011;7898;48.658;9.068;2024-02-14T05:07:29;9.70;;;5.67;;
15595;SDS011;7898;48.658;9.068;2024-02-14T05:09:56;8.77;;;5.67;;
15595;SDS011;7898;48.658;9.068;2024-02-14T05:12:23;6.87;;;5.60;;
15595;SDS011;7898;48.658;9.068;2024-02-14T05:14:51;8.33;;;5.60;;
15595;SDS011;7898;48.658;9.068;2024-02-14T05:17:18;12.40;;;7.67;;
15595;SDS011;7898;48.658;9.068;2024-02-14T05:19:45;10.10;;;5.87;;
15595;SDS011;7898;48.658;9.068;2024-02-14T05:22:12;6.53;;;5.07;;
15595;SDS011;7898;48.658;9.068;2024-02-14T05:24:39;8.27;;;4.90;;
15595;SDS011;7898;48.658;9.068;2024-02-14T05:27:06;7.97;;;5.57;;
15595;SDS011;7898;48.658;9.068;2024-02-14T05:29:33;7.57;;;4.93;;
15595;SDS011;7898;48.658;9.068;2024-02-14T05:32:01;8.60;;;6.03;;
15595;SDS011;7898;48.658;9.068;2024-02-14T05:34:28;8.00;;;6.40;;
15595;SDS011;7898;48.658;9.068;2024-02-14T05:36:55;11.30;;;6.27;;
15595;SDS011;7898;48.658;9.068;2024-02-14T05:39:22;11.97;;;10.03;;
15595;SDS011;7898;48.658;9.068;2024-02-14T05:41:48;9.20;;;6.60;;
15595;SDS011;7898;48.658;9.068;2024-02-14T05:44:16;7.53;;;4.43;;
15595;SDS011;7898;48.658;9.068;2024-02-14T05:46:43;6.80;;;4.90;;
15595;SDS011;7898;48.658;9.068;2024-02-14T05:49:11;8.67;;;4.70;;
15595;SDS011;7898;48.658;9.068;2024-02-14T05:51:38;7.23;;;4.57;;
15595;SDS011;7898;48.658;9.068;2024-02-14T05:54:06;7.27;;;4.90;;
15595;SDS011;7898;48.658;9.068;2024-02-14T05:56:32;7.33;;;4.30;;
15595;SDS011;7898;48.658;9.068;2024-02-14T05:58:59;6.93;;;4.17;;
15595;SDS011;7898;48.658;9.068;2024-02-14T06:01:27;7.37;;;4.23;;
15595;SDS011;7898;48.658;9.068;2024-02-14T06:03:54;5.50;;;3.97;;
15595;SDS011;7898;48.658;9.068;2024-02-14T06:06:23;7.00;;;4.67;;
15595;SDS011;7898;48.658;9.068;2024-02-14T06:08:49;5.83;;;4.20;;
15595;SDS011;7898;48.658;9.068;2024-02-14T06:11:16;5.63;;;4.40;;
15595;SDS011;7898;48.658;9.068;2024-02-14T06:13:46;6.47;;;4.50;;
15595;SDS011;7898;48.658;9.068;2024-02-14T06:16:13;6.43;;;4.30;;
15595;SDS011;7898;48.658;9.068;2024-02-14T06:18:40;5.00;;;3.90;;
15595;SDS011;7898;48.658;9.068;2024-02-14T06:21:07;8.40;;;4.50;;
15595;SDS011;7898;48.658;9.068;2024-02-14T06:23:35;7.80;;;5.13;;
15595;SDS011;7898;48.658;9.068;2024-02-14T06:26:06;7.17;;;4.20;;
15595;SDS011;7898;48.658;9.068;2024-02-14T06:28:33;6.83;;;3.97;;
15595;SDS011;7898;48.658;9.068;2024-02-14T06:31:00;6.50;;;4.37;;
15595;SDS011;7898;48.658;9.068;2024-02-14T06:33:27;9.43;;;5.03;;
15595;SDS011;7898;48.658;9.068;2024-02-14T06:35:54;8.10;;;4.40;;
15595;SDS011;7898;48.658;9.068;2024-02-14T06:38:21;12.80;;;7.33;;
15595;SDS011;7898;48.658;9.068;2024-02-14T06:40:49;12.33;;;6.97;;
15595;SDS011;7898;48.658;9.068;2024-02-14T06:43:16;9.90;;;5.97;;
15595;SDS011;7898;48.658;9.068;2024-02-14T06:45:43;12.93;;;6.67;;
15595;SDS011;7898;48.658;9.068;2024-02-14T06:48:10;9.87;;;5.73;;
15595;SDS011;7898;48.658;9.068;2024-02-14T06:50:36;10.67;;;4.30;;
15595;SDS011;7898;48.658;9.068;2024-02-14T06:53:03;6.27;;;4.13;;
15595;SDS011;7898;48.658;9.068;2024-02-14T06:55:30;6.40;;;3.83;;
15595;SDS011;7898;48.658;9.068;2024-02-14T06:57:59;5.23;;;3.77;;
15595;SDS011;7898;48.658;9.068;2024-02-14T07:00:26;4.93;;;3.80;;
15595;SDS011;7898;48.658;9.068;2024-02-14T07:02:54;6.43;;;4.00;;
15595;SDS011;7898;48.658;9.068;2024-02-14T07:05:21;5.40;;;3.87;;
15595;SDS011;7898;48.658;9.068;2024-02-14T07:07:48;8.87;;;3.80;;
15595;SDS011;7898;48.658;9.068;2024-02-14T07:10:18;7.70;;;4.07;;
15595;SDS011;7898;48.658;9.068;2024-02-14T07:12:44;6.67;;;4.17;;
15595;SDS011;7898;48.658;9.068;2024-02-14T07:15:13;6.90;;;4.60;;
15595;SDS011;7898;48.658;9.068;2024-02-14T07:17:40;6.23;;;3.87;;
15595;SDS011;7898;48.658;9.068;2024-02-14T07:20:07;5.80;;;3.57;;
15595;SDS011;7898;48.658;9.068;2024-02-14T07:22:34;4.23;;;3.17;;
15595;SDS011;7898;48.658;9.068;2024-02-14T07:25:01;4.53;;;3.70;;
15595;SDS011;7898;48.658;9.068;2024-02-14T07:27:30;9.67;;;4.80;;
15595;SDS011;7898;48.658;9.068;2024-02-14T07:29:57;6.83;;;3.80;;
15595;SDS011;7898;48.658;9.068;2024-02-14T07:32:25;4.77;;;2.77;;
15595;SDS011;7898;48.658;9.068;2024-02-14T07:34:53;7.00;;;3.40;;
15595;SDS011;7898;48.658;9.068;2024-02-14T07:37:19;3.47;;;2.30;;
15595;SDS011;7898;48.658;9.068;2024-02-14T07:39:46;4.33;;;2.90;;
15595;SDS011;7898;48.658;9.068;2024-02-14T07:42:14;4.27;;;2.70;;
15595;SDS011;7898;48.658;9.068;2024-02-14T07:44:40;5.83;;;3.63;;
15595;SDS011;7898;48.658;9.068;2024-02-14T07:47:07;4.93;;;3.30;;
15595;SDS011;7898;48.658;9.068;2024-02-14T07:49:36;7.07;;;3.07;;
15595;SDS011;7898;48.658;9.068;2024-02-14T07:52:03;5.60;;;3.17;;
15595;SDS011;7898;48.658;9.068;2024-02-14T07:54:30;7.20;;;3.23;;
15595;SDS011;7898;48.658;9.068;2024-02-14T07:56:57;4.63;;;3.40;;
15595;SDS011;7898;48.658;9.068;2024-02-14T07:59:24;4.57;;;2.77;;
15595;SDS011;7898;48.658;9.068;2024-02-14T08:01:52;4.10;;;2.83;;
15595;SDS011;7898;48.658;9.068;2024-02-14T08:04:19;4.60;;;2.90;;
15595;SDS011;7898;48.658;9.068;2024-02-14T08:06:47;3.90;;;2.60;;
15595;SDS011;7898;48.658;9.068;2024-02-14T08:09:15;5.50;;;2.50;;
15595;SDS011;7898;48.658;9.068;2024-02-14T08:11:42;5.30;;;2.57;;
15595;SDS011;7898;48.658;9.068;2024-02-14T08:14:09;5.57;;;2.13;;
15595;SDS011;7898;48.658;9.068;2024-02-14T08:16:36;4.17;;;2.47;;
15595;SDS011;7898;48.658;9.068;2024-02-14T08:19:03;3.87;;;2.30;;
15595;SDS011;7898;48.658;9.068;2024-02-14T08:21:30;4.30;;;2.40;;
15595;SDS011;7898;48.658;9.068;2024-02-14T08:23:58;2.87;;;2.00;;
15595;SDS011;7898;48.658;9.068;2024-02-14T08:26:25;6.57;;;2.50;;
15595;SDS011;7898;48.658;9.068;2024-02-14T08:28:52;3.53;;;2.07;;
15595;SDS011;7898;48.658;9.068;2024-02-14T08:31:19;4.30;;;2.43;;
15595;SDS011;7898;48.658;9.068;2024-02-14T08:33:46;4.07;;;2.27;;
15595;SDS011;7898;48.658;9.068;2024-02-14T08:36:13;4.13;;;2.10;;
15595;SDS011;7898;48.658;9.068;2024-02-14T08:38:41;4.57;;;1.97;;
15595;SDS011;7898;48.658;9.068;2024-02-14T08:41:10;4.97;;;2.03;;
15595;SDS011;7898;48.658;9.068;2024-02-14T08:43:37;1.93;;;1.70;;
15595;SDS011;7898;48.658;9.068;2024-02-14T08:46:08;4.73;;;2.40;;
15595;SDS011;7898;48.658;9.068;2024-02-14T08:48:36;3.20;;;1.90;;
15595;SDS011;7898;48.658;9.068;2024-02-14T08:51:06;4.20;;;1.97;;
15595;SDS011;7898;48.658;9.068;2024-02-14T08:53:34;8.87;;;2.63;;
15595;SDS011;7898;48.658;9.068;2024-02-14T08:56:01;5.07;;;3.30;;
15595;SDS011;7898;48.658;9.068;2024-02-14T08:58:30;3.20;;;1.90;;
15595;SDS011;7898;48.658;9.068;2024-02-14T09:00:56;4.23;;;1.97;;
15595;SDS011;7898;48.658;9.068;2024-02-14T09:03:23;6.50;;;1.90;;
15595;SDS011;7898;48.658;9.068;2024-02-14T09:05:50;3.00;;;2.20;;
15595;SDS011;7898;48.658;9.068;2024-02-14T09:08:18;2.93;;;2.13;;
15595;SDS011;7898;48.658;9.068;2024-02-14T09:10:45;4.47;;;3.00;;
15595;SDS011;7898;48.658;9.068;2024-02-14T09:13:13;5.97;;;3.97;;
15595;SDS011;7898;48.658;9.068;2024-02-14T09:15:42;3.70;;;2.20;;
15595;SDS011;7898;48.658;9.068;2024-02-14T09:18:09;2.80;;;1.60;;
15595;SDS011;7898;48.658;9.068;2024-02-14T09:20:36;3.17;;;1.77;;
15595;SDS011;7898;48.658;9.068;2024-02-14T09:23:03;4.87;;;1.33;;
15595;SDS011;7898;48.658;9.068;2024-02-14T09:25:30;2.70;;;1.80;;
15595;SDS011;7898;48.658;9.068;2024-02-14T09:27:57;2.47;;;1.33;;
15595;SDS011;7898;48.658;9.068;2024-02-14T09:30:24;1.77;;;1.30;;
15595;SDS011;7898;48.658;9.068;2024-02-14T09:32:52;1.73;;;1.20;;
15595;SDS011;7898;48.658;9.068;2024-02-14T09:35:19;4.00;;;1.73;;
15595;SDS011;7898;48.658;9.068;2024-02-14T09:37:46;3.67;;;1.70;;
15595;SDS011;7898;48.658;9.068;2024-02-14T09:40:14;3.83;;;3.30;;
15595;SDS011;7898;48.658;9.068;2024-02-14T09:42:43;2.70;;;1.77;;
15595;SDS011;7898;48.658;9.068;2024-02-14T09:45:14;6.73;;;3.57;;
15595;SDS011;7898;48.658;9.068;2024-02-14T09:47:41;3.13;;;2.43;;
15595;SDS011;7898;48.658;9.068;2024-02-14T09:50:10;5.50;;;3.33;;
15595;SDS011;7898;48.658;9.068;2024-02-14T09:52:38;6.17;;;3.83;;
15595;SDS011;7898;48.658;9.068;2024-02-14T09:55:07;7.83;;;3.20;;
15595;SDS011;7898;48.658;9.068;2024-02-14T09:57:38;3.97;;;2.70;;
15595;SDS011;7898;48.658;9.068;2024-02-14T10:00:09;2.03;;;1.57;;
15595;SDS011;7898;48.658;9.068;2024-02-14T10:02:36;4.40;;;2.00;;
15595;SDS011;7898;48.658;9.068;2024-02-14T10:05:04;3.53;;;1.53;;
15595;SDS011;7898;48.658;9.068;2024-02-14T10:07:40;4.50;;;1.97;;
15595;SDS011;7898;48.658;9.068;2024-02-14T10:10:08;3.43;;;1.47;;
15595;SDS011;7898;48.658;9.068;2024-02-14T10:12:36;2.13;;;1.40;;
15595;SDS011;7898;48.658;9.068;2024-02-14T10:15:04;3.47;;;1.43;;
15595;SDS011;7898;48.658;9.068;2024-02-14T10:17:32;1.92;;;1.80;;
15595;SDS011;7898;48.658;9.068;2024-02-14T10:19:59;2.85;;;1.40;;
15595;SDS011;7898;48.658;9.068;2024-02-14T10:22:32;5.78;;;1.65;;
15595;SDS011;7898;48.658;9.068;2024-02-14T10:25:02;4.45;;;1.48;;
15595;SDS011;7898;48.658;9.068;2024-02-14T10:27:29;4.55;;;1.52;;
15595;SDS011;7898;48.658;9.068;2024-02-14T10:29:57;1.08;;;0.80;;
15595;SDS011;7898;48.658;9.068;2024-02-14T10:32:25;3.05;;;1.27;;
15595;SDS011;7898;48.658;9.068;2024-02-14T10:34:53;3.63;;;1.80;;
15595;SDS011;7898;48.658;9.068;2024-02-14T10:37:20;1.77;;;1.30;;
15595;SDS011;7898;48.658;9.068;2024-02-14T10:39:47;1.75;;;1.33;;
15595;SDS011;7898;48.658;9.068;2024-02-14T10:42:18;3.03;;;1.55;;
15595;SDS011;7898;48.658;9.068;2024-02-14T10:44:46;2.90;;;1.55;;
15595;SDS011;7898;48.658;9.068;2024-02-14T10:47:14;2.35;;;1.50;;
15595;SDS011;7898;48.658;9.068;2024-02-14T10:49:46;5.10;;;1.20;;
15595;SDS011;7898;48.658;9.068;2024-02-14T10:52:16;4.22;;;1.55;;
15595;SDS011;7898;48.658;9.068;2024-02-14T10:54:46;2.40;;;1.10;;
15595;SDS011;7898;48.658;9.068;2024-02-14T10:57:23;2.58;;;1.20;;
15595;SDS011;7898;48.658;9.068;2024-02-14T10:59:50;3.45;;;1.40;;
15595;SDS011;7898;48.658;9.068;2024-02-14T11:02:21;3.45;;;1.52;;
15595;SDS011;7898;48.658;9.068;2024-02-14T11:04:49;7.93;;;1.60;;
15595;SDS011;7898;48.658;9.068;2024-02-14T11:07:19;4.35;;;1.50;;
15595;SDS011;7898;48.658;9.068;2024-02-14T11:09:48;2.72;;;1.33;;
15595;SDS011;7898;48.658;9.068;2024-02-14T11:12:27;3.65;;;1.20;;
15595;SDS011;7898;48.658;9.068;2024-02-14T11:15:00;3.58;;;1.35;;
15595;SDS011;7898;48.658;9.068;2024-02-14T11:17:29;1.77;;;1.27;;
15595;SDS011;7898;48.658;9.068;2024-02-14T11:19:56;1.70;;;1.42;;
15595;SDS011;7898;48.658;9.068;2024-02-14T11:22:23;2.08;;;1.50;;
15595;SDS011;7898;48.658;9.068;2024-02-14T11:24:51;1.45;;;1.00;;
15595;SDS011;7898;48.658;9.068;2024-02-14T11:27:19;3.42;;;1.30;;
15595;SDS011;7898;48.658;9.068;2024-02-14T11:29:52;2.97;;;1.70;;
15595;SDS011;7898;48.658;9.068;2024-02-14T11:32:19;1.88;;;1.10;;
15595;SDS011;7898;48.658;9.068;2024-02-14T11:34:55;2.33;;;1.25;;
15595;SDS011;7898;48.658;9.068;2024-02-14T11:37:27;2.65;;;1.52;;
15595;SDS011;7898;48.658;9.068;2024-02-14T11:39:54;3.38;;;1.50;;
15595;SDS011;7898;48.658;9.068;2024-02-14T11:42:23;0.85;;;0.80;;
15595;SDS011;7898;48.658;9.068;2024-02-14T11:44:51;1.42;;;0.93;;
15595;SDS011;7898;48.658;9.068;2024-02-14T11:47:20;1.83;;;1.20;;
15595;SDS011;7898;48.658;9.068;2024-02-14T11:49:48;3.17;;;0.90;;
15595;SDS011;7898;48.658;9.068;2024-02-14T11:52:15;2.17;;;1.33;;
15595;SDS011;7898;48.658;9.068;2024-02-14T11:54:45;2.22;;;1.15;;
15595;SDS011;7898;48.658;9.068;2024-02-14T11:57:16;1.50;;;1.10;;
15595;SDS011;7898;48.658;9.068;2024-02-14T11:59:44;4.30;;;1.70;;
15595;SDS011;7898;48.658;9.068;2024-02-14T12:02:13;3.47;;;1.20;;
15595;SDS011;7898;48.658;9.068;2024-02-14T12:04:41;1.13;;;1.00;;
15595;SDS011;7898;48.658;9.068;2024-02-14T12:07:08;5.82;;;1.58;;
15595;SDS011;7898;48.658;9.068;2024-02-14T12:09:35;2.55;;;1.08;;
15595;SDS011;7898;48.658;9.068;2024-02-14T12:12:02;1.20;;;0.88;;
15595;SDS011;7898;48.658;9.068;2024-02-14T12:14:32;1.55;;;0.98;;
15595;SDS011;7898;48.658;9.068;2024-02-14T12:17:00;1.35;;;0.57;;
15595;SDS011;7898;48.658;9.068;2024-02-14T12:19:29;2.85;;;0.70;;
15595;SDS011;7898;48.658;9.068;2024-02-14T12:21:58;1.45;;;0.80;;
15595;SDS011;7898;48.658;9.068;2024-02-14T12:24:26;2.03;;;0.80;;
15595;SDS011;7898;48.658;9.068;2024-02-14T12:26:54;0.80;;;0.60;;
15595;SDS011;7898;48.658;9.068;2024-02-14T12:29:23;0.98;;;0.70;;
15595;SDS011;7898;48.658;9.068;2024-02-14T12:31:50;0.90;;;0.60;;
15595;SDS011;7898;48.658;9.068;2024-02-14T12:34:17;0.90;;;0.73;;
15595;SDS011;7898;48.658;9.068;2024-02-14T12:36:47;1.45;;;0.90;;
15595;SDS011;7898;48.658;9.068;2024-02-14T12:39:14;2.22;;;0.80;;
15595;SDS011;7898;48.658;9.068;2024-02-14T12:41:41;2.05;;;0.80;;
15595;SDS011;7898;48.658;9.068;2024-02-14T12:44:07;0.63;;;0.60;;
15595;SDS011;7898;48.658;9.068;2024-02-14T12:46:34;0.98;;;0.77;;
15595;SDS011;7898;48.658;9.068;2024-02-14T12:49:03;1.77;;;0.82;;
15595;SDS011;7898;48.658;9.068;2024-02-14T12:51:30;1.05;;;0.75;;
15595;SDS011;7898;48.658;9.068;2024-02-14T12:53:59;2.35;;;1.10;;
15595;SDS011;7898;48.658;9.068;2024-02-14T12:56:26;1.73;;;0.80;;
15595;SDS011;7898;48.658;9.068;2024-02-14T12:58:53;1.02;;;0.70;;
15595;SDS011;7898;48.658;9.068;2024-02-14T13:01:20;1.52;;;0.65;;
15595;SDS011;7898;48.658;9.068;2024-02-14T13:03:47;0.80;;;0.65;;
15595;SDS011;7898;48.658;9.068;2024-02-14T13:06:14;1.83;;;0.88;;
15595;SDS011;7898;48.658;9.068;2024-02-14T13:08:41;1.02;;;0.80;;
15595;SDS011;7898;48.658;9.068;2024-02-14T13:11:09;2.50;;;1.52;;
15595;SDS011;7898;48.658;9.068;2024-02-14T13:13:36;2.38;;;1.58;;
15595;SDS011;7898;48.658;9.068;2024-02-14T13:16:03;2.47;;;1.30;;
15595;SDS011;7898;48.658;9.068;2024-02-14T13:18:31;2.17;;;1.20;;
15595;SDS011;7898;48.658;9.068;2024-02-14T13:20:58;3.10;;;1.02;;
15595;SDS011;7898;48.658;9.068;2024-02-14T13:23:26;1.67;;;0.80;;
15595;SDS011;7898;48.658;9.068;2024-02-14T13:25:52;1.45;;;1.15;;
15595;SDS011;7898;48.658;9.068;2024-02-14T13:28:20;0.88;;;0.82;;
15595;SDS011;7898;48.658;9.068;2024-02-14T13:30:47;1.30;;;0.98;;
15595;SDS011;7898;48.658;9.068;2024-02-14T13:33:14;1.05;;;0.80;;
15595;SDS011;7898;48.658;9.068;2024-02-14T13:35:40;1.50;;;1.10;;
15595;SDS011;7898;48.658;9.068;2024-02-14T13:38:07;5.00;;;1.00;;
15595;SDS011;7898;48.658;9.068;2024-02-14T13:40:35;0.55;;;0.55;;
15595;SDS011;7898;48.658;9.068;2024-02-14T13:43:02;1.70;;;0.98;;
15595;SDS011;7898;48.658;9.068;2024-02-14T13:45:41;1.65;;;0.90;;
15595;SDS011;7898;48.658;9.068;2024-02-14T13:48:09;2.05;;;1.33;;
15595;SDS011;7898;48.658;9.068;2024-02-14T13:50:36;0.85;;;0.80;;
15595;SDS011;7898;48.658;9.068;2024-02-14T13:53:04;1.13;;;0.80;;
15595;SDS011;7898;48.658;9.068;2024-02-14T13:55:32;0.88;;;0.47;;
15595;SDS011;7898;48.658;9.068;2024-02-14T13:57:59;0.90;;;0.60;;
15595;SDS011;7898;48.658;9.068;2024-02-14T14:00:26;1.05;;;0.95;;
15595;SDS011;7898;48.658;9.068;2024-02-14T14:02:55;1.45;;;0.60;;
15595;SDS011;7898;48.658;9.068;2024-02-14T14:05:22;1.15;;;0.50;;
15595;SDS011;7898;48.658;9.068;2024-02-14T14:07:49;1.38;;;0.95;;
15595;SDS011;7898;48.658;9.068;2024-02-14T14:10:17;1.90;;;0.90;;
15595;SDS011;7898;48.658;9.068;2024-02-14T14:12:44;2.08;;;0.70;;
15595;SDS011;7898;48.658;9.068;2024-02-14T14:15:10;5.22;;;0.80;;
15595;SDS011;7898;48.658;9.068;2024-02-14T14:17:37;1.00;;;0.60;;
15595;SDS011;7898;48.658;9.068;2024-02-14T14:20:06;2.60;;;0.55;;
15595;SDS011;7898;48.658;9.068;2024-02-14T14:22:34;1.45;;;0.98;;
15595;SDS011;7898;48.658;9.068;2024-02-14T14:25:03;1.17;;;0.65;;
15595;SDS011;7898;48.658;9.068;2024-02-14T14:27:31;1.23;;;0.80;;
15595;SDS011;7898;48.658;9.068;2024-02-14T14:29:58;2.47;;;0.95;;
15595;SDS011;7898;48.658;9.068;2024-02-14T14:32:25;1.65;;;0.60;;
15595;SDS011;7898;48.658;9.068;2024-02-14T14:34:52;2.65;;;1.10;;
15595;SDS011;7898;48.658;9.068;2024-02-14T14:37:20;1.88;;;1.52;;
15595;SDS011;7898;48.658;9.068;2024-02-14T14:39:48;1.02;;;0.60;;
15595;SDS011;7898;48.658;9.068;2024-02-14T14:42:15;1.00;;;0.80;;
15595;SDS011;7898;48.658;9.068;2024-02-14T14:44:42;1.75;;;1.00;;
15595;SDS011;7898;48.658;9.068;2024-02-14T14:47:09;2.42;;;1.10;;
15595;SDS011;7898;48.658;9.068;2024-02-14T14:49:37;2.42;;;0.77;;
15595;SDS011;7898;48.658;9.068;2024-02-14T14:52:04;1.17;;;0.50;;
15595;SDS011;7898;48.658;9.068;2024-02-14T14:54:32;1.90;;;1.30;;
15595;SDS011;7898;48.658;9.068;2024-02-14T14:56:59;2.03;;;1.52;;
15595;SDS011;7898;48.658;9.068;2024-02-14T14:59:34;2.75;;;1.70;;